sensor_id;sensor_type;location;lat;lon;timestamp;pressure;altitude;pressure_sealevel;temperature;humidity
10921;BME280;5513;50.580;8.818;2023-02-22T00:02:04;99078.47;;;6.81;100.00
10921;BME280;5513;50.580;8.818;2023-02-22T00:04:52;99076.06;;;6.76;100.00
10921;BME280;5513;50.580;8.818;2023-02-22T00:07:21;99077.91;;;6.74;100.00
10921;BME280;5513;50.580;8.818;2023-02-22T00:09:49;99074.06;;;6.81;100.00
10921;BME280;5513;50.580;8.818;2023-02-22T00:12:18;99074.28;;;6.77;100.00
10921;BME280;5513;50.580;8.818;2023-02-22T00:14:46;99073.28;;;6.79;100.00
10921;BME280;5513;50.580;8.818;2023-02-22T00:17:16;99062.03;;;6.58;100.00
10921;BME280;5513;50.580;8.818;2023-02-22T00:19:47;99060.72;;;6.50;100.00
10921;BME280;5513;50.580;8.818;2023-02-22T00:22:17;99051.25;;;6.46;100.00
10921;BME280;5513;50.580;8.818;2023-02-22T00:24:46;99056.66;;;6.43;100.00
10921;BME280;5513;50.580;8.818;2023-02-22T00:27:15;99053.16;;;6.25;100.00
10921;BME280;5513;50.580;8.818;2023-02-22T00:29:44;99038.53;;;6.19;100.00
10921;BME280;5513;50.580;8.818;2023-02-22T00:32:13;99044.66;;;6.20;100.00
10921;BME280;5513;50.580;8.818;2023-02-22T00:34:42;99038.69;;;6.34;100.00
10921;BME280;5513;50.580;8.818;2023-02-22T00:37:10;99043.50;;;6.43;100.00
10921;BME280;5513;50.580;8.818;2023-02-22T00:39:40;99040.56;;;6.31;100.00
10921;BME280;5513;50.580;8.818;2023-02-22T00:42:08;99042.88;;;6.20;100.00
10921;BME280;5513;50.580;8.818;2023-02-22T00:44:37;99036.84;;;6.18;100.00
10921;BME280;5513;50.580;8.818;2023-02-22T00:47:05;99038.81;;;6.13;100.00
10921;BME280;5513;50.580;8.818;2023-02-22T00:49:34;99036.44;;;6.26;100.00
10921;BME280;5513;50.580;8.818;2023-02-22T00:52:03;99032.03;;;6.26;100.00
10921;BME280;5513;50.580;8.818;2023-02-22T00:54:32;99031.94;;;6.11;100.00
10921;BME280;5513;50.580;8.818;2023-02-22T00:57:02;99025.75;;;6.12;100.00
10921;BME280;5513;50.580;8.818;2023-02-22T00:59:30;99030.06;;;6.13;100.00
10921;BME280;5513;50.580;8.818;2023-02-22T01:01:59;99028.56;;;6.07;100.00
10921;BME280;5513;50.580;8.818;2023-02-22T01:04:27;99027.66;;;5.89;100.00
10921;BME280;5513;50.580;8.818;2023-02-22T01:06:55;99027.72;;;5.88;100.00
10921;BME280;5513;50.580;8.818;2023-02-22T01:09:26;99020.91;;;5.84;100.00
10921;BME280;5513;50.580;8.818;2023-02-22T01:11:55;99015.31;;;5.72;100.00
10921;BME280;5513;50.580;8.818;2023-02-22T01:14:26;99010.91;;;5.54;100.00
10921;BME280;5513;50.580;8.818;2023-02-22T01:16:55;99016.31;;;5.51;100.00
10921;BME280;5513;50.580;8.818;2023-02-22T01:19:24;99013.09;;;5.44;100.00
10921;BME280;5513;50.580;8.818;2023-02-22T01:21:52;99016.72;;;5.42;100.00
10921;BME280;5513;50.580;8.818;2023-02-22T01:24:21;99014.63;;;5.30;100.00
10921;BME280;5513;50.580;8.818;2023-02-22T01:26:50;99011.88;;;5.33;100.00
10921;BME280;5513;50.580;8.818;2023-02-22T01:29:19;99011.53;;;5.40;100.00
10921;BME280;5513;50.580;8.818;2023-02-22T01:31:54;99009.09;;;5.36;100.00
10921;BME280;5513;50.580;8.818;2023-02-22T01:34:23;99012.59;;;5.36;100.00
10921;BME280;5513;50.580;8.818;2023-02-22T01:36:52;99014.63;;;5.30;100.00
10921;BME280;5513;50.580;8.818;2023-02-22T01:39:22;99003.69;;;5.20;100.00
10921;BME280;5513;50.580;8.818;2023-02-22T01:41:50;99005.84;;;5.31;100.00
10921;BME280;5513;50.580;8.818;2023-02-22T01:44:25;99008.13;;;5.38;100.00
10921;BME280;5513;50.580;8.818;2023-02-22T01:46:57;98997.06;;;5.32;100.00
10921;BME280;5513;50.580;8.818;2023-02-22T01:49:29;98998.09;;;5.28;100.00
10921;BME280;5513;50.580;8.818;2023-02-22T01:52:01;98998.94;;;5.28;100.00
10921;BME280;5513;50.580;8.818;2023-02-22T01:54:33;98983.50;;;5.22;100.00
10921;BME280;5513;50.580;8.818;2023-02-22T01:57:07;98987.03;;;5.21;100.00
10921;BME280;5513;50.580;8.818;2023-02-22T01:59:42;98990.84;;;5.14;100.00
10921;BME280;5513;50.580;8.818;2023-02-22T02:02:13;98987.31;;;5.15;100.00
10921;BME280;5513;50.580;8.818;2023-02-22T02:04:42;98983.16;;;5.09;100.00
10921;BME280;5513;50.580;8.818;2023-02-22T02:07:12;98988.53;;;5.27;100.00
10921;BME280;5513;50.580;8.818;2023-02-22T02:09:48;98982.69;;;5.20;100.00
10921;BME280;5513;50.580;8.818;2023-02-22T02:12:19;98975.13;;;4.94;100.00
10921;BME280;5513;50.580;8.818;2023-02-22T02:14:49;98985.03;;;4.87;100.00
10921;BME280;5513;50.580;8.818;2023-02-22T02:17:20;98984.72;;;4.95;100.00
10921;BME280;5513;50.580;8.818;2023-02-22T02:19:56;98976.88;;;4.74;100.00
10921;BME280;5513;50.580;8.818;2023-02-22T02:22:40;98968.59;;;4.83;100.00
10921;BME280;5513;50.580;8.818;2023-02-22T02:25:38;98969.47;;;4.82;100.00
10921;BME280;5513;50.580;8.818;2023-02-22T02:31:26;98971.94;;;4.67;100.00
10921;BME280;5513;50.580;8.818;2023-02-22T02:34:06;98955.53;;;4.62;100.00
10921;BME280;5513;50.580;8.818;2023-02-22T02:36:41;98962.16;;;4.70;100.00
10921;BME280;5513;50.580;8.818;2023-02-22T02:39:17;98964.53;;;4.56;100.00
10921;BME280;5513;50.580;8.818;2023-02-22T02:41:50;98959.84;;;4.63;100.00
10921;BME280;5513;50.580;8.818;2023-02-22T02:44:25;98961.69;;;4.60;100.00
10921;BME280;5513;50.580;8.818;2023-02-22T02:47:00;98955.41;;;4.65;100.00
10921;BME280;5513;50.580;8.818;2023-02-22T02:49:38;98953.38;;;4.51;100.00
10921;BME280;5513;50.580;8.818;2023-02-22T02:52:10;98951.81;;;4.47;100.00
10921;BME280;5513;50.580;8.818;2023-02-22T02:54:40;98952.19;;;4.38;100.00
10921;BME280;5513;50.580;8.818;2023-02-22T02:57:11;98945.81;;;4.43;100.00
10921;BME280;5513;50.580;8.818;2023-02-22T02:59:39;98944.94;;;4.44;100.00
10921;BME280;5513;50.580;8.818;2023-02-22T03:02:18;98945.81;;;4.43;100.00
10921;BME280;5513;50.580;8.818;2023-02-22T03:05:10;98945.44;;;4.52;100.00
10921;BME280;5513;50.580;8.818;2023-02-22T03:07:48;98944.34;;;4.58;100.00
10921;BME280;5513;50.580;8.818;2023-02-22T03:10:36;98938.94;;;4.61;100.00
10921;BME280;5513;50.580;8.818;2023-02-22T03:13:13;98933.84;;;4.58;100.00
10921;BME280;5513;50.580;8.818;2023-02-22T03:15:49;98942.41;;;4.62;100.00
10921;BME280;5513;50.580;8.818;2023-02-22T03:18:24;98943.09;;;4.46;100.00
10921;BME280;5513;50.580;8.818;2023-02-22T03:21:03;98937.84;;;4.46;100.00
10921;BME280;5513;50.580;8.818;2023-02-22T03:23:37;98939.56;;;4.47;100.00
10921;BME280;5513;50.580;8.818;2023-02-22T03:26:13;98936.16;;;4.45;100.00
10921;BME280;5513;50.580;8.818;2023-02-22T03:28:53;98933.78;;;4.39;100.00
10921;BME280;5513;50.580;8.818;2023-02-22T03:31:25;98932.22;;;4.35;100.00
10921;BME280;5513;50.580;8.818;2023-02-22T03:33:57;98936.31;;;4.41;100.00
10921;BME280;5513;50.580;8.818;2023-02-22T03:36:32;98928.78;;;4.33;100.00
10921;BME280;5513;50.580;8.818;2023-02-22T03:39:07;98930.09;;;4.23;100.00
10921;BME280;5513;50.580;8.818;2023-02-22T03:41:40;98934.69;;;4.38;100.00
10921;BME280;5513;50.580;8.818;2023-02-22T03:44:15;98932.69;;;4.45;100.00
10921;BME280;5513;50.580;8.818;2023-02-22T03:46:47;98938.94;;;4.20;100.00
10921;BME280;5513;50.580;8.818;2023-02-22T03:49:24;98937.78;;;4.27;100.00
10921;BME280;5513;50.580;8.818;2023-02-22T03:51:57;98935.34;;;4.23;100.00
10921;BME280;5513;50.580;8.818;2023-02-22T03:54:27;98934.56;;;4.21;100.00
10921;BME280;5513;50.580;8.818;2023-02-22T03:56:57;98929.63;;;4.34;100.00
10921;BME280;5513;50.580;8.818;2023-02-22T03:59:28;98925.44;;;4.29;100.00
10921;BME280;5513;50.580;8.818;2023-02-22T04:01:56;98938.03;;;4.42;100.00
10921;BME280;5513;50.580;8.818;2023-02-22T04:04:25;98929.47;;;4.38;100.00
10921;BME280;5513;50.580;8.818;2023-02-22T04:06:53;98928.53;;;4.39;100.00
10921;BME280;5513;50.580;8.818;2023-02-22T04:09:23;98932.53;;;4.27;100.00
10921;BME280;5513;50.580;8.818;2023-02-22T04:11:53;98932.91;;;4.18;100.00
10921;BME280;5513;50.580;8.818;2023-02-22T04:14:22;98936.00;;;4.28;100.00
10921;BME280;5513;50.580;8.818;2023-02-22T04:16:50;98927.28;;;4.07;100.00
10921;BME280;5513;50.580;8.818;2023-02-22T04:19:18;98931.97;;;3.99;100.00
10921;BME280;5513;50.580;8.818;2023-02-22T04:21:47;98933.44;;;3.84;100.00
10921;BME280;5513;50.580;8.818;2023-02-22T04:24:15;98925.63;;;3.83;100.00
10921;BME280;5513;50.580;8.818;2023-02-22T04:26:45;98931.50;;;3.89;100.00
10921;BME280;5513;50.580;8.818;2023-02-22T04:29:13;98927.78;;;3.73;100.00
10921;BME280;5513;50.580;8.818;2023-02-22T04:31:42;98927.16;;;3.66;100.00
10921;BME280;5513;50.580;8.818;2023-02-22T04:34:12;98929.34;;;3.55;100.00
10921;BME280;5513;50.580;8.818;2023-02-22T04:36:40;98920.59;;;3.56;100.00
10921;BME280;5513;50.580;8.818;2023-02-22T04:39:10;98924.81;;;3.38;100.00
10921;BME280;5513;50.580;8.818;2023-02-22T04:41:41;98921.00;;;3.45;100.00
10921;BME280;5513;50.580;8.818;2023-02-22T04:44:11;98921.94;;;3.44;100.00
10921;BME280;5513;50.580;8.818;2023-02-22T04:46:39;98924.59;;;3.43;100.00
10921;BME280;5513;50.580;8.818;2023-02-22T04:49:08;98921.06;;;3.44;100.00
10921;BME280;5513;50.580;8.818;2023-02-22T04:51:37;98922.41;;;3.32;100.00
10921;BME280;5513;50.580;8.818;2023-02-22T04:54:05;98931.47;;;3.24;100.00
10921;BME280;5513;50.580;8.818;2023-02-22T04:56:33;98926.91;;;3.29;100.00
10921;BME280;5513;50.580;8.818;2023-02-22T04:59:02;98932.81;;;3.34;100.00
10921;BME280;5513;50.580;8.818;2023-02-22T05:01:33;98930.59;;;3.23;100.00
10921;BME280;5513;50.580;8.818;2023-02-22T05:04:02;98928.63;;;3.30;100.00
10921;BME280;5513;50.580;8.818;2023-02-22T05:06:30;98922.13;;;3.40;100.00
10921;BME280;5513;50.580;8.818;2023-02-22T05:08:59;98932.94;;;3.31;100.00
10921;BME280;5513;50.580;8.818;2023-02-22T05:11:27;98928.50;;;3.33;100.00
10921;BME280;5513;50.580;8.818;2023-02-22T05:13:55;98932.16;;;3.29;100.00
10921;BME280;5513;50.580;8.818;2023-02-22T05:16:23;98933.22;;;3.23;100.00
10921;BME280;5513;50.580;8.818;2023-02-22T05:18:54;98927.13;;;3.23;100.00
10921;BME280;5513;50.580;8.818;2023-02-22T05:21:22;98931.31;;;3.28;100.00
10921;BME280;5513;50.580;8.818;2023-02-22T05:23:50;98926.09;;;3.27;100.00
10921;BME280;5513;50.580;8.818;2023-02-22T05:26:19;98926.09;;;3.27;100.00
10921;BME280;5513;50.580;8.818;2023-02-22T05:28:47;98931.16;;;3.31;100.00
10921;BME280;5513;50.580;8.818;2023-02-22T05:31:16;98920.00;;;3.26;100.00
10921;BME280;5513;50.580;8.818;2023-02-22T05:33:46;98926.38;;;3.42;100.00
10921;BME280;5513;50.580;8.818;2023-02-22T05:36:16;98926.31;;;3.44;100.00
10921;BME280;5513;50.580;8.818;2023-02-22T05:38:45;98927.50;;;3.35;100.00
10921;BME280;5513;50.580;8.818;2023-02-22T05:41:13;98922.06;;;3.41;100.00
10921;BME280;5513;50.580;8.818;2023-02-22T05:43:42;98916.09;;;3.60;100.00
10921;BME280;5513;50.580;8.818;2023-02-22T05:46:13;98920.66;;;3.55;100.00
10921;BME280;5513;50.580;8.818;2023-02-22T05:48:41;98917.94;;;3.58;100.00
10921;BME280;5513;50.580;8.818;2023-02-22T05:51:09;98918.22;;;3.50;100.00
10921;BME280;5513;50.580;8.818;2023-02-22T05:53:39;98914.25;;;3.62;100.00
10921;BME280;5513;50.580;8.818;2023-02-22T05:56:08;98916.94;;;3.60;100.00
10921;BME280;5513;50.580;8.818;2023-02-22T05:58:36;98910.72;;;3.63;100.00
10921;BME280;5513;50.580;8.818;2023-02-22T06:01:04;98915.41;;;3.55;100.00
10921;BME280;5513;50.580;8.818;2023-02-22T06:03:33;98913.16;;;3.45;100.00
10921;BME280;5513;50.580;8.818;2023-02-22T06:06:02;98909.09;;;3.60;100.00
10921;BME280;5513;50.580;8.818;2023-02-22T06:08:31;98910.94;;;3.58;100.00
10921;BME280;5513;50.580;8.818;2023-02-22T06:11:01;98910.19;;;3.55;100.00
10921;BME280;5513;50.580;8.818;2023-02-22T06:13:31;98923.03;;;3.61;100.00
10921;BME280;5513;50.580;8.818;2023-02-22T06:16:00;98910.56;;;3.67;100.00
10921;BME280;5513;50.580;8.818;2023-02-22T06:18:28;98911.34;;;3.69;100.00
10921;BME280;5513;50.580;8.818;2023-02-22T06:20:58;98917.59;;;3.65;100.00
10921;BME280;5513;50.580;8.818;2023-02-22T06:23:26;98920.28;;;3.64;100.00
10921;BME280;5513;50.580;8.818;2023-02-22T06:25:54;98917.16;;;3.76;100.00
10921;BME280;5513;50.580;8.818;2023-02-22T06:28:24;98920.78;;;3.73;100.00
10921;BME280;5513;50.580;8.818;2023-02-22T06:30:53;98930.16;;;3.79;100.00
10921;BME280;5513;50.580;8.818;2023-02-22T06:33:21;98921.88;;;3.90;100.00
10921;BME280;5513;50.580;8.818;2023-02-22T06:35:49;98930.22;;;3.99;100.00
10921;BME280;5513;50.580;8.818;2023-02-22T06:38:21;98924.38;;;4.13;100.00
10921;BME280;5513;50.580;8.818;2023-02-22T06:40:50;98929.75;;;4.10;100.00
10921;BME280;5513;50.580;8.818;2023-02-22T06:43:18;98930.06;;;4.02;100.00
10921;BME280;5513;50.580;8.818;2023-02-22T06:45:48;98931.66;;;4.07;100.00
10921;BME280;5513;50.580;8.818;2023-02-22T06:48:17;98930.53;;;4.12;100.00
10921;BME280;5513;50.580;8.818;2023-02-22T06:50:46;98930.31;;;4.18;100.00
10921;BME280;5513;50.580;8.818;2023-02-22T06:53:14;98924.28;;;4.16;100.00
10921;BME280;5513;50.580;8.818;2023-02-22T06:55:43;98930.53;;;4.12;100.00
10921;BME280;5513;50.580;8.818;2023-02-22T06:58:11;98932.78;;;4.21;100.00
10921;BME280;5513;50.580;8.818;2023-02-22T07:00:39;98929.75;;;4.10;100.00
10921;BME280;5513;50.580;8.818;2023-02-22T07:03:10;98933.00;;;4.17;100.00
10921;BME280;5513;50.580;8.818;2023-02-22T07:05:39;98928.00;;;4.11;100.00
10921;BME280;5513;50.580;8.818;2023-02-22T07:08:09;98924.53;;;4.10;100.00
10921;BME280;5513;50.580;8.818;2023-02-22T07:10:38;98925.59;;;4.05;100.00
10921;BME280;5513;50.580;8.818;2023-02-22T07:13:07;98923.28;;;4.19;100.00
10921;BME280;5513;50.580;8.818;2023-02-22T07:15:35;98925.69;;;4.23;100.00
10921;BME280;5513;50.580;8.818;2023-02-22T07:18:03;98928.59;;;4.38;100.00
10921;BME280;5513;50.580;8.818;2023-02-22T07:20:34;98919.59;;;4.43;100.00
10921;BME280;5513;50.580;8.818;2023-02-22T07:23:03;98928.06;;;4.50;100.00
10921;BME280;5513;50.580;8.818;2023-02-22T07:25:31;98928.84;;;4.52;100.00
10921;BME280;5513;50.580;8.818;2023-02-22T07:27:59;98917.44;;;4.53;100.00
10921;BME280;5513;50.580;8.818;2023-02-22T07:30:31;98922.38;;;4.40;100.00
10921;BME280;5513;50.580;8.818;2023-02-22T07:33:01;98918.44;;;4.50;100.00
10921;BME280;5513;50.580;8.818;2023-02-22T07:35:34;98920.88;;;4.55;100.00
10921;BME280;5513;50.580;8.818;2023-02-22T07:38:04;98924.47;;;4.52;100.00
10921;BME280;5513;50.580;8.818;2023-02-22T07:40:34;98915.78;;;4.71;100.00
10921;BME280;5513;50.580;8.818;2023-02-22T07:43:05;98918.50;;;4.08;100.00
10921;BME280;5513;50.580;8.818;2023-02-22T07:45:39;98923.88;;;4.25;100.00
10921;BME280;5513;50.580;8.818;2023-02-22T07:48:09;98918.88;;;3.99;100.00
10921;BME280;5513;50.580;8.818;2023-02-22T07:50:44;98917.84;;;4.44;100.00
10921;BME280;5513;50.580;8.818;2023-02-22T07:53:15;98917.97;;;4.41;100.00
10921;BME280;5513;50.580;8.818;2023-02-22T07:55:44;98912.88;;;4.58;100.00
10921;BME280;5513;50.580;8.818;2023-02-22T07:58:14;98910.13;;;4.80;100.00
10921;BME280;5513;50.580;8.818;2023-02-22T08:00:43;98908.25;;;4.83;100.00
10921;BME280;5513;50.580;8.818;2023-02-22T08:03:16;98913.03;;;5.13;100.00
10921;BME280;5513;50.580;8.818;2023-02-22T08:05:48;98910.31;;;5.33;100.00
10921;BME280;5513;50.580;8.818;2023-02-22T08:08:19;98902.53;;;5.32;100.00
10921;BME280;5513;50.580;8.818;2023-02-22T08:10:48;98900.72;;;5.51;100.00
10921;BME280;5513;50.580;8.818;2023-02-22T08:13:17;98907.88;;;5.47;100.00
10921;BME280;5513;50.580;8.818;2023-02-22T08:15:49;98904.31;;;5.67;100.00
10921;BME280;5513;50.580;8.818;2023-02-22T08:18:21;98909.00;;;5.80;100.00
10921;BME280;5513;50.580;8.818;2023-02-22T08:20:52;98896.63;;;5.82;100.00
10921;BME280;5513;50.580;8.818;2023-02-22T08:23:22;98894.06;;;5.99;100.00
10921;BME280;5513;50.580;8.818;2023-02-22T08:25:51;98892.03;;;6.04;100.00
10921;BME280;5513;50.580;8.818;2023-02-22T08:28:21;98895.59;;;6.03;100.00
10921;BME280;5513;50.580;8.818;2023-02-22T08:30:50;98897.00;;;6.10;100.00
10921;BME280;5513;50.580;8.818;2023-02-22T08:33:18;98885.59;;;6.27;100.00
10921;BME280;5513;50.580;8.818;2023-02-22T08:35:48;98894.22;;;6.30;100.00
10921;BME280;5513;50.580;8.818;2023-02-22T08:38:21;98887.16;;;6.48;100.00
10921;BME280;5513;50.580;8.818;2023-02-22T08:40:50;98888.56;;;6.71;100.00
10921;BME280;5513;50.580;8.818;2023-02-22T08:43:19;98888.66;;;6.70;100.00
10921;BME280;5513;50.580;8.818;2023-02-22T08:45:48;98883.69;;;6.81;100.00
10921;BME280;5513;50.580;8.818;2023-02-22T08:48:18;98883.63;;;6.98;100.00
10921;BME280;5513;50.580;8.818;2023-02-22T08:50:47;98881.00;;;7.14;100.00
10921;BME280;5513;50.580;8.818;2023-02-22T08:53:19;98887.56;;;7.23;100.00
10921;BME280;5513;50.580;8.818;2023-02-22T08:55:47;98887.91;;;7.32;100.00
10921;BME280;5513;50.580;8.818;2023-02-22T08:58:17;98883.25;;;7.53;100.00
10921;BME280;5513;50.580;8.818;2023-02-22T09:00:46;98878.19;;;7.80;100.00
10921;BME280;5513;50.580;8.818;2023-02-22T09:03:15;98881.66;;;7.81;100.00
10921;BME280;5513;50.580;8.818;2023-02-22T09:05:43;98883.38;;;7.82;100.00
10921;BME280;5513;50.580;8.818;2023-02-22T09:08:12;98872.47;;;7.88;100.00
10921;BME280;5513;50.580;8.818;2023-02-22T09:10:41;98879.00;;;8.26;100.00
10921;BME280;5513;50.580;8.818;2023-02-22T09:13:11;98871.94;;;8.27;100.00
10921;BME280;5513;50.580;8.818;2023-02-22T09:15:41;98870.13;;;8.27;100.00
10921;BME280;5513;50.580;8.818;2023-02-22T09:18:12;98862.84;;;8.47;100.00
10921;BME280;5513;50.580;8.818;2023-02-22T09:20:43;98860.59;;;8.55;100.00
10921;BME280;5513;50.580;8.818;2023-02-22T09:23:11;98863.34;;;8.82;100.00
10921;BME280;5513;50.580;8.818;2023-02-22T09:25:41;98859.41;;;8.75;100.00
10921;BME280;5513;50.580;8.818;2023-02-22T09:28:10;98860.19;;;9.32;100.00
10921;BME280;5513;50.580;8.818;2023-02-22T09:30:38;98851.41;;;9.32;100.00
10921;BME280;5513;50.580;8.818;2023-02-22T09:33:09;98850.97;;;9.52;100.00
10921;BME280;5513;50.580;8.818;2023-02-22T09:35:40;98850.94;;;9.39;100.00
10921;BME280;5513;50.580;8.818;2023-02-22T09:38:14;98848.13;;;9.55;100.00
10921;BME280;5513;50.580;8.818;2023-02-22T09:40:47;98845.44;;;9.96;100.00
10921;BME280;5513;50.580;8.818;2023-02-22T09:43:34;98848.69;;;9.87;100.00
10921;BME280;5513;50.580;8.818;2023-02-22T09:46:17;98841.25;;;9.80;100.00
10921;BME280;5513;50.580;8.818;2023-02-22T09:49:02;98836.16;;;9.50;100.00
10921;BME280;5513;50.580;8.818;2023-02-22T09:51:37;98840.91;;;9.71;100.00
10921;BME280;5513;50.580;8.818;2023-02-22T09:54:12;98839.47;;;9.93;100.00
10921;BME280;5513;50.580;8.818;2023-02-22T09:56:47;98831.13;;;9.99;100.00
10921;BME280;5513;50.580;8.818;2023-02-22T09:59:22;98832.44;;;9.66;100.00
10921;BME280;5513;50.580;8.818;2023-02-22T10:01:56;98834.03;;;10.09;100.00
10921;BME280;5513;50.580;8.818;2023-02-22T10:04:35;98832.22;;;10.09;100.00
10921;BME280;5513;50.580;8.818;2023-02-22T10:07:13;98828.25;;;10.29;100.00
10921;BME280;5513;50.580;8.818;2023-02-22T10:09:46;98836.59;;;9.83;100.00
10921;BME280;5513;50.580;8.818;2023-02-22T10:12:27;98838.47;;;10.08;100.00
10921;BME280;5513;50.580;8.818;2023-02-22T10:17:57;98836.78;;;10.07;100.00
10921;BME280;5513;50.580;8.818;2023-02-22T10:20:40;98827.13;;;10.33;100.00
10921;BME280;5513;50.580;8.818;2023-02-22T10:23:20;98832.41;;;10.33;100.00
10921;BME280;5513;50.580;8.818;2023-02-22T10:25:55;98827.97;;;10.34;100.00
10921;BME280;5513;50.580;8.818;2023-02-22T10:28:35;98824.47;;;10.46;100.00
10921;BME280;5513;50.580;8.818;2023-02-22T10:31:08;98823.91;;;10.28;100.00
10921;BME280;5513;50.580;8.818;2023-02-22T10:33:45;98811.50;;;10.79;100.00
10921;BME280;5513;50.580;8.818;2023-02-22T10:36:17;98815.13;;;10.91;100.00
10921;BME280;5513;50.580;8.818;2023-02-22T10:38:51;98813.03;;;11.07;100.00
10921;BME280;5513;50.580;8.818;2023-02-22T10:41:27;98801.53;;;11.32;100.00
10921;BME280;5513;50.580;8.818;2023-02-22T10:43:57;98801.66;;;11.79;100.00
10921;BME280;5513;50.580;8.818;2023-02-22T10:46:27;98800.81;;;12.13;100.00
10921;BME280;5513;50.580;8.818;2023-02-22T10:49:01;98802.56;;;12.37;100.00
10921;BME280;5513;50.580;8.818;2023-02-22T10:51:33;98800.25;;;12.32;100.00
10921;BME280;5513;50.580;8.818;2023-02-22T10:54:19;98805.56;;;12.43;100.00
10921;BME280;5513;50.580;8.818;2023-02-22T10:56:53;98798.59;;;12.53;100.00
10921;BME280;5513;50.580;8.818;2023-02-22T10:59:30;98799.31;;;13.00;100.00
10921;BME280;5513;50.580;8.818;2023-02-22T11:02:00;98794.94;;;13.10;100.00
10921;BME280;5513;50.580;8.818;2023-02-22T11:04:45;98802.22;;;12.97;100.00
10921;BME280;5513;50.580;8.818;2023-02-22T11:07:21;98798.72;;;12.52;100.00
10921;BME280;5513;50.580;8.818;2023-02-22T11:09:53;98786.50;;;12.49;100.00
10921;BME280;5513;50.580;8.818;2023-02-22T11:12:29;98791.56;;;12.30;100.00
10921;BME280;5513;50.580;8.818;2023-02-22T11:15:28;98788.44;;;12.36;100.00
10921;BME280;5513;50.580;8.818;2023-02-22T11:17:57;98780.00;;;12.65;100.00
10921;BME280;5513;50.580;8.818;2023-02-22T11:20:29;98785.81;;;12.58;100.00
10921;BME280;5513;50.580;8.818;2023-02-22T11:23:01;98784.06;;;12.24;100.00
10921;BME280;5513;50.580;8.818;2023-02-22T11:25:33;98779.50;;;12.26;100.00
10921;BME280;5513;50.580;8.818;2023-02-22T11:28:07;98775.81;;;12.16;100.00
10921;BME280;5513;50.580;8.818;2023-02-22T11:30:38;98767.19;;;12.36;100.00
10921;BME280;5513;50.580;8.818;2023-02-22T11:33:16;98759.19;;;12.25;100.00
10921;BME280;5513;50.580;8.818;2023-02-22T11:35:52;98758.34;;;12.24;100.00
10921;BME280;5513;50.580;8.818;2023-02-22T11:38:22;98750.59;;;12.10;100.00
10921;BME280;5513;50.580;8.818;2023-02-22T11:41:09;98754.97;;;12.22;100.00
10921;BME280;5513;50.580;8.818;2023-02-22T11:43:41;98746.41;;;12.19;100.00
10921;BME280;5513;50.580;8.818;2023-02-22T11:46:15;98756.19;;;12.29;100.00
10921;BME280;5513;50.580;8.818;2023-02-22T11:48:55;98738.31;;;12.20;100.00
10921;BME280;5513;50.580;8.818;2023-02-22T11:51:48;98741.16;;;12.06;100.00
10921;BME280;5513;50.580;8.818;2023-02-22T11:54:59;98748.22;;;12.29;100.00
10921;BME280;5513;50.580;8.818;2023-02-22T11:57:43;98740.72;;;12.23;100.00
10921;BME280;5513;50.580;8.818;2023-02-22T12:00:20;98735.19;;;12.38;100.00
10921;BME280;5513;50.580;8.818;2023-02-22T12:03:17;98735.28;;;12.14;100.00
10921;BME280;5513;50.580;8.818;2023-02-22T12:09:00;98724.78;;;12.23;100.00
10921;BME280;5513;50.580;8.818;2023-02-22T12:11:34;98731.91;;;12.12;100.00
10921;BME280;5513;50.580;8.818;2023-02-22T12:14:14;98724.31;;;12.18;100.00
10921;BME280;5513;50.580;8.818;2023-02-22T12:19:49;98722.38;;;12.20;100.00
10921;BME280;5513;50.580;8.818;2023-02-22T12:22:22;98720.56;;;12.21;100.00
10921;BME280;5513;50.580;8.818;2023-02-22T12:24:55;98715.63;;;12.27;100.00
10921;BME280;5513;50.580;8.818;2023-02-22T12:27:39;98711.91;;;12.41;100.00
10921;BME280;5513;50.580;8.818;2023-02-22T12:30:12;98714.31;;;12.55;100.00
10921;BME280;5513;50.580;8.818;2023-02-22T12:32:46;98715.63;;;12.39;100.00
10921;BME280;5513;50.580;8.818;2023-02-22T12:35:24;98712.84;;;12.40;100.00
10921;BME280;5513;50.580;8.818;2023-02-22T12:38:00;98708.97;;;12.44;100.00
10921;BME280;5513;50.580;8.818;2023-02-22T12:40:36;98706.69;;;12.51;100.00
10921;BME280;5513;50.580;8.818;2023-02-22T12:43:14;98700.31;;;12.20;100.00
10921;BME280;5513;50.580;8.818;2023-02-22T12:45:50;98705.72;;;12.07;100.00
10921;BME280;5513;50.580;8.818;2023-02-22T12:48:42;98707.63;;;11.94;100.00
10921;BME280;5513;50.580;8.818;2023-02-22T12:51:36;98705.75;;;12.41;100.00
10921;BME280;5513;50.580;8.818;2023-02-22T12:54:13;98710.19;;;12.40;100.00
10921;BME280;5513;50.580;8.818;2023-02-22T12:56:49;98701.75;;;12.57;100.00
10921;BME280;5513;50.580;8.818;2023-02-22T12:59:25;98704.88;;;12.51;100.00
10921;BME280;5513;50.580;8.818;2023-02-22T13:01:59;98699.47;;;12.42;100.00
10921;BME280;5513;50.580;8.818;2023-02-22T13:04:30;98693.91;;;12.67;100.00
10921;BME280;5513;50.580;8.818;2023-02-22T13:07:11;98692.09;;;12.68;100.00
10921;BME280;5513;50.580;8.818;2023-02-22T13:09:55;98693.56;;;12.38;100.00
10921;BME280;5513;50.580;8.818;2023-02-22T13:12:34;98696.56;;;12.33;100.00
10921;BME280;5513;50.580;8.818;2023-02-22T13:15:09;98692.00;;;12.36;100.00
10921;BME280;5513;50.580;8.818;2023-02-22T13:17:50;98694.66;;;12.36;100.00
10921;BME280;5513;50.580;8.818;2023-02-22T13:20:23;98690.53;;;12.65;100.00
10921;BME280;5513;50.580;8.818;2023-02-22T13:23:00;98689.69;;;12.65;100.00
10921;BME280;5513;50.580;8.818;2023-02-22T13:25:36;98683.59;;;12.74;100.00
10921;BME280;5513;50.580;8.818;2023-02-22T13:28:23;98679.25;;;12.84;100.00
10921;BME280;5513;50.580;8.818;2023-02-22T13:31:09;98679.75;;;12.78;100.00
10921;BME280;5513;50.580;8.818;2023-02-22T13:33:53;98669.88;;;13.01;100.00
10921;BME280;5513;50.580;8.818;2023-02-22T13:36:38;98675.38;;;12.88;100.00
10921;BME280;5513;50.580;8.818;2023-02-22T13:42:45;98671.78;;;13.10;100.00
10921;BME280;5513;50.580;8.818;2023-02-22T13:45:50;98665.63;;;13.21;100.00
10921;BME280;5513;50.580;8.818;2023-02-22T13:48:41;98657.63;;;13.21;100.00
10921;BME280;5513;50.580;8.818;2023-02-22T13:51:32;98650.50;;;13.21;100.00
10921;BME280;5513;50.580;8.818;2023-02-22T13:54:06;98652.34;;;13.09;100.00